Time;durP1;ratioP1;P1;durP2;ratioP2;P2;SDS_P1;SDS_P2;PMS_P1;PMS_P2;Temp;Humidity;BMP_temperature;BMP_pressure;BME280_temperature;BME280_humidity;BME280_pressure;Samples;Min_cycle;Max_cycle;Signal;HPM_P1;HPM_P2
2023/07/06 00:01:40;;;;;;;5.43;1.50;;;;;;;15.91;71.19;150072.50;4951710;28;20240;-60
2023/07/06 00:04:08;;;;;;;2.40;1.27;;;;;;;15.93;72.07;150076.22;4952498;28;20238;-59
2023/07/06 00:06:36;;;;;;;3.57;1.37;;;;;;;15.80;72.75;150044.97;4950425;28;20285;-59
2023/07/06 00:09:05;;;;;;;4.23;1.40;;;;;;;15.84;72.52;150053.72;4952610;28;20241;-60
2023/07/06 00:11:35;;;;;;;7.10;1.57;;;;;;;15.73;72.05;150028.72;4949849;28;20235;-59
2023/07/06 00:14:02;;;;;;;3.00;1.40;;;;;;;15.72;73.54;150026.22;4952876;28;20746;-60
2023/07/06 00:16:29;;;;;;;3.30;1.50;;;;;;;15.71;75.52;150022.47;4949702;28;20223;-59
2023/07/06 00:18:58;;;;;;;1.97;1.10;;;;;;;15.62;76.00;150001.25;4954808;28;20241;-60
2023/07/06 00:21:27;;;;;;;3.87;1.53;;;;;;;15.50;75.46;149973.75;4948924;28;20286;-59
2023/07/06 00:23:55;;;;;;;2.17;1.40;;;;;;;15.40;74.67;149948.75;4956600;28;20281;-60
2023/07/06 00:26:21;;;;;;;8.10;1.53;;;;;;;15.32;76.53;149928.78;4947943;28;20243;-60
2023/07/06 00:28:49;;;;;;;2.73;1.73;;;;;;;15.22;75.80;149903.78;4954133;28;20298;-60
2023/07/06 00:31:21;;;;;;;2.43;1.50;;;;;;;15.13;75.94;149883.81;4954067;28;20242;-59
2023/07/06 00:33:48;;;;;;;6.03;1.60;;;;;;;15.08;75.56;149870.09;4950399;28;20226;-59
2023/07/06 00:36:15;;;;;;;3.57;1.60;;;;;;;15.04;75.06;149861.31;4955865;28;20316;-60
2023/07/06 00:38:44;;;;;;;3.43;1.53;;;;;;;15.00;75.18;149852.59;4950229;28;20252;-60
2023/07/06 00:41:12;;;;;;;3.30;1.43;;;;;;;14.88;74.57;149822.63;4951311;28;20237;-59
2023/07/06 00:43:51;;;;;;;2.50;1.70;;;;;;;14.78;74.57;149797.63;4948681;28;20284;-59
2023/07/06 00:46:17;;;;;;;1.97;1.27;;;;;;;14.76;79.23;149795.13;4951691;28;20634;-59
2023/07/06 00:48:47;;;;;;;4.50;1.50;;;;;;;14.70;77.65;149778.94;4951964;28;20233;-60
2023/07/06 00:51:18;;;;;;;4.13;2.13;;;;;;;14.67;76.11;149771.38;4955142;28;20240;-60
2023/07/06 00:53:52;;;;;;;3.90;1.50;;;;;;;14.62;74.85;149760.13;4949464;28;20239;-59
2023/07/06 00:56:23;;;;;;;4.40;1.30;;;;;;;14.60;76.74;149756.41;4958710;28;20787;-58
2023/07/06 00:58:54;;;;;;;4.00;1.60;;;;;;;14.61;77.82;149758.91;4962478;28;20273;-59
2023/07/06 01:01:24;;;;;;;5.07;1.80;;;;;;;14.58;78.41;149751.41;4950682;28;20656;-59
2023/07/06 01:03:53;;;;;;;4.40;1.40;;;;;;;14.58;77.40;149751.41;4950414;28;20233;-59
2023/07/06 01:06:26;;;;;;;5.17;1.50;;;;;;;14.58;78.22;149750.13;4952540;28;20235;-59
2023/07/06 01:08:54;;;;;;;2.47;1.33;;;;;;;14.60;75.67;149756.41;4950855;28;20580;-61
2023/07/06 01:11:21;;;;;;;3.10;1.40;;;;;;;14.66;74.03;149770.13;4950786;28;20245;-61
2023/07/06 01:13:49;;;;;;;3.40;1.27;;;;;;;14.69;76.87;149776.38;4949762;28;20659;-60
2023/07/06 01:16:25;;;;;;;3.87;1.50;;;;;;;14.67;77.13;149772.63;4952851;28;20376;-60
2023/07/06 01:19:01;;;;;;;2.87;1.53;;;;;;;14.67;73.24;149771.38;4948368;28;20233;-60
2023/07/06 01:21:36;;;;;;;2.67;1.67;;;;;;;14.61;74.78;149757.63;4950258;28;20238;-60
2023/07/06 01:24:25;;;;;;;2.37;1.60;;;;;;;14.52;74.80;149736.41;4954562;28;20704;-60
2023/07/06 01:27:05;;;;;;;2.47;1.30;;;;;;;14.48;76.05;149726.44;4954790;28;20242;-60
2023/07/06 01:30:11;;;;;;;2.80;1.30;;;;;;;14.38;78.02;149702.69;4949586;28;20231;-61
2023/07/06 01:32:44;;;;;;;2.03;1.40;;;;;;;14.24;79.11;149669.00;4949538;28;20570;-61
2023/07/06 01:35:16;;;;;;;5.60;1.43;;;;;;;14.16;79.31;149649.03;4974059;28;20228;-61
2023/07/06 01:37:45;;;;;;;2.90;1.30;;;;;;;14.06;77.90;149624.06;4950334;28;20259;-61
2023/07/06 01:40:12;;;;;;;4.13;1.60;;;;;;;13.95;78.96;149597.88;4967231;28;20250;-62
2023/07/06 01:42:42;;;;;;;3.13;1.30;;;;;;;13.79;79.84;149559.16;4946980;28;20254;-61
2023/07/06 01:45:16;;;;;;;6.43;1.43;;;;;;;13.76;79.04;149551.69;4952210;28;20248;-62
2023/07/06 01:47:46;;;;;;;3.53;1.30;;;;;;;13.75;79.88;149550.44;4949566;28;20316;-62
2023/07/06 01:50:14;;;;;;;4.43;1.60;;;;;;;13.67;79.51;149531.72;4950086;28;20227;-61
2023/07/06 01:53:05;;;;;;;4.97;1.97;;;;;;;13.70;77.66;149537.94;4946014;28;20242;-62
2023/07/06 01:55:40;;;;;;;3.73;1.80;;;;;;;13.67;77.63;149531.72;4942356;28;20260;-61
2023/07/06 01:58:12;;;;;;;4.60;1.77;;;;;;;13.64;77.53;149524.25;4954363;28;20224;-61
2023/07/06 02:00:48;;;;;;;4.03;1.57;;;;;;;13.61;78.58;149516.75;4942109;28;20230;-61
2023/07/06 02:03:24;;;;;;;5.57;1.60;;;;;;;13.56;78.53;149504.28;4934248;28;20369;-61
2023/07/06 02:05:58;;;;;;;2.27;1.30;;;;;;;13.54;78.30;149499.28;4933612;28;20303;-60
2023/07/06 02:08:26;;;;;;;4.13;1.60;;;;;;;13.45;79.71;149478.03;4917698;28;21181;-62
2023/07/06 02:10:56;;;;;;;5.17;1.40;;;;;;;13.40;80.32;149466.78;4944359;28;20234;-61
2023/07/06 02:13:26;;;;;;;2.30;1.40;;;;;;;13.33;81.29;149448.06;4921102;28;20233;-61
2023/07/06 02:16:01;;;;;;;2.40;1.30;;;;;;;13.27;81.88;149434.34;4947576;28;20228;-62
2023/07/06 02:18:33;;;;;;;4.33;1.40;;;;;;;13.23;80.84;149424.38;4911688;28;20232;-60
2023/07/06 02:21:01;;;;;;;6.37;1.60;;;;;;;13.20;81.46;149416.88;4935779;28;20654;-61
2023/07/06 02:23:28;;;;;;;4.87;1.40;;;;;;;13.19;81.14;149414.38;4918595;28;20222;-62
2023/07/06 02:25:55;;;;;;;3.40;1.43;;;;;;;13.25;79.45;149430.59;4932998;28;20249;-62
2023/07/06 02:28:28;;;;;;;2.73;1.53;;;;;;;13.32;79.65;149446.81;4933767;28;20288;-61
2023/07/06 02:30:55;;;;;;;2.37;1.47;;;;;;;13.29;80.18;149440.56;4955321;28;20253;-62
2023/07/06 02:33:22;;;;;;;4.03;1.40;;;;;;;13.34;79.79;149450.53;4949708;28;20267;-61
2023/07/06 02:35:51;;;;;;;2.63;1.43;;;;;;;13.32;79.44;149446.81;4950698;28;20238;-61
2023/07/06 02:38:19;;;;;;;4.00;1.30;;;;;;;13.24;80.43;149426.88;4949837;28;20670;-61
2023/07/06 02:40:48;;;;;;;3.47;1.30;;;;;;;13.24;81.66;149426.88;4944249;28;20226;-61
2023/07/06 02:43:15;;;;;;;3.17;1.60;;;;;;;13.19;81.42;149415.66;4952053;28;20590;-60
2023/07/06 02:45:41;;;;;;;4.27;1.40;;;;;;;13.12;80.87;149398.19;4946025;28;20318;-61
2023/07/06 02:48:08;;;;;;;4.00;1.60;;;;;;;13.06;83.51;149383.22;4950117;28;20249;-60
2023/07/06 02:50:36;;;;;;;2.73;1.57;;;;;;;13.02;83.31;149374.47;4949447;28;20284;-60
2023/07/06 02:53:04;;;;;;;4.53;1.30;;;;;;;12.89;81.63;149342.03;4956885;28;20711;-62
2023/07/06 02:55:32;;;;;;;5.40;1.67;;;;;;;12.83;82.98;149329.56;4948876;28;20233;-61
2023/07/06 02:57:59;;;;;;;4.87;1.90;;;;;;;12.69;83.16;149294.69;4950702;28;20240;-60
2023/07/06 03:00:26;;;;;;;2.20;1.47;;;;;;;12.61;85.48;149274.72;4946079;28;20244;-61
2023/07/06 03:02:52;;;;;;;4.30;1.90;;;;;;;12.55;84.08;149260.97;4949417;28;20312;-62
2023/07/06 03:05:21;;;;;;;3.83;1.27;;;;;;;12.49;87.10;149247.28;4951683;28;20238;-61
2023/07/06 03:07:49;;;;;;;2.40;1.40;;;;;;;12.47;86.03;149241.03;4949173;28;20304;-61
2023/07/06 03:10:19;;;;;;;2.27;1.70;;;;;;;12.40;87.20;149226.06;4952929;28;20229;-61
2023/07/06 03:12:48;;;;;;;5.00;1.67;;;;;;;12.33;87.55;149207.38;4960977;28;20244;-60
2023/07/06 03:15:16;;;;;;;4.60;1.73;;;;;;;12.24;85.37;149186.16;4950900;28;20236;-60
2023/07/06 03:17:48;;;;;;;6.83;1.60;;;;;;;12.16;86.08;149166.25;4950831;28;20229;-61
2023/07/06 03:20:19;;;;;;;3.83;1.63;;;;;;;12.15;87.15;149163.75;4952079;28;20232;-60
2023/07/06 03:22:48;;;;;;;3.43;1.60;;;;;;;12.15;89.05;149164.97;4949985;28;20327;-61
2023/07/06 03:25:18;;;;;;;3.60;1.53;;;;;;;12.22;86.59;149181.16;4956383;28;20248;-62
2023/07/06 03:27:46;;;;;;;6.47;2.17;;;;;;;12.17;86.61;149169.97;4951052;28;20229;-61
2023/07/06 03:32:59;;;;;;;5.70;2.00;;;;;;;12.12;87.76;149157.50;4980356;23;20233;-61
2023/07/06 03:35:26;;;;;;;3.43;1.70;;;;;;;12.13;88.15;149158.78;4935793;29;20229;-60
2023/07/06 03:37:55;;;;;;;5.43;2.00;;;;;;;12.11;88.00;149155.00;4938484;28;20236;-61
2023/07/06 03:40:24;;;;;;;2.87;1.60;;;;;;;12.22;86.87;149181.16;4937518;29;20258;-62
2023/07/06 03:42:53;;;;;;;4.50;1.50;;;;;;;12.23;85.60;149184.94;4929278;28;20231;-62
2023/07/06 03:45:20;;;;;;;4.27;1.60;;;;;;;12.32;85.89;149204.88;4948138;28;20234;-61
2023/07/06 03:47:46;;;;;;;4.50;1.80;;;;;;;12.27;85.41;149193.63;4949049;28;20232;-61
2023/07/06 03:50:16;;;;;;;5.33;1.63;;;;;;;12.29;85.78;149198.63;4948520;28;20247;-61
2023/07/06 03:52:43;;;;;;;3.77;1.70;;;;;;;12.30;84.93;149201.13;4939597;28;20603;-62
2023/07/06 03:55:14;;;;;;;4.93;1.93;;;;;;;12.30;84.84;149199.91;4948542;28;20236;-62
2023/07/06 03:57:45;;;;;;;4.20;1.47;;;;;;;12.32;85.63;149204.88;4947700;28;20835;-61
2023/07/06 04:00:19;;;;;;;6.03;1.90;;;;;;;12.32;85.65;149206.09;4946766;28;20705;-60
2023/07/06 04:02:46;;;;;;;3.73;1.70;;;;;;;12.36;85.08;149214.84;4930462;28;20236;-61
2023/07/06 04:05:16;;;;;;;5.30;1.83;;;;;;;12.31;85.98;149203.63;4946985;28;20296;-60
2023/07/06 04:07:43;;;;;;;2.73;1.70;;;;;;;12.37;85.90;149218.59;4944890;28;20240;-61
2023/07/06 04:10:11;;;;;;;3.00;1.57;;;;;;;12.39;85.21;149223.56;4949847;28;20697;-60
2023/07/06 04:12:38;;;;;;;6.20;1.70;;;;;;;12.45;85.71;149237.31;4946709;28;20244;-61
2023/07/06 04:15:08;;;;;;;3.87;2.00;;;;;;;12.42;85.98;149228.56;4948473;28;20236;-61
2023/07/06 04:17:36;;;;;;;3.93;1.70;;;;;;;12.45;87.37;149237.31;4944986;28;20369;-61
2023/07/06 04:20:17;;;;;;;4.63;1.70;;;;;;;12.45;88.71;149236.03;4950490;28;20327;-61
2023/07/06 04:22:44;;;;;;;3.67;1.80;;;;;;;12.38;87.89;149221.06;4945982;28;20226;-61
2023/07/06 04:25:11;;;;;;;3.87;1.70;;;;;;;12.42;88.44;149229.81;4949425;28;21114;-61
2023/07/06 04:27:37;;;;;;;2.40;1.67;;;;;;;12.48;88.20;149243.53;4947228;28;20259;-60
2023/07/06 04:30:07;;;;;;;2.27;1.50;;;;;;;12.46;88.75;149238.53;4949830;28;20892;-61
2023/07/06 04:32:33;;;;;;;4.67;1.60;;;;;;;12.46;88.26;149238.53;4946539;28;20283;-61
2023/07/06 04:35:00;;;;;;;3.23;1.70;;;;;;;12.45;89.05;149236.03;4947901;28;20284;-61
2023/07/06 04:37:28;;;;;;;3.60;1.67;;;;;;;12.45;91.17;149236.03;4945974;28;20425;-61
2023/07/06 04:39:54;;;;;;;5.43;1.50;;;;;;;12.44;90.53;149234.81;4950004;28;20703;-61
2023/07/06 04:42:27;;;;;;;6.13;1.57;;;;;;;12.51;89.42;149251.00;4950624;28;20238;-61
2023/07/06 04:44:54;;;;;;;4.07;1.63;;;;;;;12.53;89.48;149256.00;4946250;28;20234;-61
2023/07/06 04:47:23;;;;;;;3.77;1.80;;;;;;;12.53;88.62;149256.00;4948485;28;20236;-61
2023/07/06 04:49:50;;;;;;;4.10;1.73;;;;;;;12.54;89.10;149259.75;4946635;28;20244;-62
2023/07/06 04:52:17;;;;;;;4.23;1.53;;;;;;;12.57;89.71;149265.97;4948231;28;20244;-61
2023/07/06 04:54:43;;;;;;;3.90;1.80;;;;;;;12.58;89.49;149268.47;4945860;28;20325;-61
2023/07/06 04:57:14;;;;;;;3.67;1.90;;;;;;;12.60;90.08;149273.44;4947571;28;20289;-61
2023/07/06 04:59:42;;;;;;;3.27;1.70;;;;;;;12.71;89.06;149299.66;4946829;28;20743;-61
2023/07/06 05:02:10;;;;;;;5.13;1.53;;;;;;;12.73;88.85;149304.59;4947465;28;20311;-61
2023/07/06 05:04:41;;;;;;;7.57;2.33;;;;;;;12.80;89.45;149320.84;4943015;28;20230;-62
2023/07/06 05:07:12;;;;;;;3.77;1.70;;;;;;;12.77;88.77;149314.59;4947263;28;20240;-62
2023/07/06 05:09:40;;;;;;;7.90;1.87;;;;;;;12.84;89.20;149330.81;4943861;28;20372;-61
2023/07/06 05:12:08;;;;;;;4.30;2.17;;;;;;;12.85;88.90;149334.53;4948964;28;20241;-60
2023/07/06 05:14:38;;;;;;;8.10;2.00;;;;;;;12.91;89.24;149348.28;4946590;28;20246;-61
2023/07/06 05:17:05;;;;;;;17.97;2.50;;;;;;;12.94;89.79;149354.50;4946967;28;20226;-61
2023/07/06 05:19:39;;;;;;;7.63;2.10;;;;;;;12.98;90.90;149365.75;4943961;28;20233;-61
2023/07/06 05:22:06;;;;;;;5.60;1.80;;;;;;;13.06;91.78;149384.44;4947199;28;20245;-61
2023/07/06 05:24:39;;;;;;;6.63;2.00;;;;;;;13.10;91.65;149394.44;4944314;28;20222;-62
2023/07/06 05:27:06;;;;;;;3.93;2.13;;;;;;;13.11;91.36;149396.91;4949611;28;20241;-61
2023/07/06 05:29:38;;;;;;;4.27;1.90;;;;;;;13.15;89.89;149405.69;4945763;28;20232;-61
2023/07/06 05:32:05;;;;;;;4.13;1.60;;;;;;;13.22;89.87;149421.88;4946818;28;20297;-61
2023/07/06 05:34:35;;;;;;;5.47;1.90;;;;;;;13.34;89.86;149451.81;4944104;28;20234;-61
2023/07/06 05:37:04;;;;;;;5.00;1.73;;;;;;;13.47;89.27;149481.81;4937560;28;20300;-61
2023/07/06 05:39:30;;;;;;;3.93;1.70;;;;;;;13.55;88.91;149501.78;4944015;28;20226;-61
2023/07/06 05:41:57;;;;;;;4.93;1.50;;;;;;;13.64;88.02;149524.25;4947532;28;20307;-61
2023/07/06 05:44:23;;;;;;;3.53;1.73;;;;;;;13.81;86.32;149564.13;4942447;28;20238;-61
2023/07/06 05:46:50;;;;;;;3.43;1.63;;;;;;;14.13;86.76;149642.81;4945112;28;20302;-62
2023/07/06 05:49:17;;;;;;;5.10;1.73;;;;;;;14.56;84.01;149746.41;4947585;28;20721;-61
2023/07/06 05:51:43;;;;;;;6.70;1.80;;;;;;;14.95;83.61;149840.09;4928451;28;20852;-61
2023/07/06 05:54:11;;;;;;;3.93;1.80;;;;;;;15.31;83.06;149926.28;4946024;28;20241;-61
2023/07/06 05:56:38;;;;;;;5.93;1.70;;;;;;;15.61;80.73;149999.97;4944481;28;20299;-61
2023/07/06 05:59:05;;;;;;;1.93;1.50;;;;;;;15.93;78.91;150077.50;4947367;28;20783;-61
2023/07/06 06:01:32;;;;;;;5.50;1.20;;;;;;;16.27;78.53;150158.72;4944795;28;20238;-61
2023/07/06 06:03:58;;;;;;;2.77;1.83;;;;;;;16.52;76.03;150218.72;4948943;28;20223;-61
2023/07/06 06:06:26;;;;;;;4.53;1.83;;;;;;;16.73;74.92;150269.97;4942344;28;20238;-61
2023/07/06 06:08:53;;;;;;;4.63;1.50;;;;;;;16.93;75.02;150317.47;4948912;28;20715;-62
2023/07/06 06:11:21;;;;;;;6.20;1.27;;;;;;;17.21;72.94;150386.28;4945607;28;20307;-62
2023/07/06 06:13:49;;;;;;;2.90;1.50;;;;;;;17.38;72.90;150427.59;4944875;28;20239;-62
2023/07/06 06:16:16;;;;;;;6.47;1.73;;;;;;;17.46;73.24;150446.31;4946733;28;20244;-61
2023/07/06 06:18:44;;;;;;;3.60;1.50;;;;;;;17.53;71.82;150463.84;4944871;28;21682;-62
2023/07/06 06:21:10;;;;;;;3.93;1.50;;;;;;;17.68;68.16;150498.88;4944921;28;20645;-62
2023/07/06 06:23:37;;;;;;;2.73;1.80;;;;;;;17.85;65.78;150540.13;4944391;28;20227;-61
2023/07/06 06:26:04;;;;;;;4.37;2.07;;;;;;;17.90;63.29;150551.41;4930731;28;20714;-61
2023/07/06 06:28:31;;;;;;;4.87;2.10;;;;;;;17.97;61.40;150568.94;4945096;28;20233;-61
2023/07/06 06:30:58;;;;;;;4.07;1.83;;;;;;;17.97;62.92;150568.94;4948302;28;20314;-61
2023/07/06 06:33:25;;;;;;;4.07;1.93;;;;;;;18.02;62.58;150580.22;4943980;28;20240;-62
2023/07/06 06:35:52;;;;;;;4.43;1.90;;;;;;;18.09;61.85;150597.75;4947818;28;20226;-62
2023/07/06 06:38:18;;;;;;;3.83;1.73;;;;;;;18.28;62.59;150645.28;4944357;28;20238;-62
2023/07/06 06:40:45;;;;;;;4.00;1.60;;;;;;;18.56;60.81;150711.59;4943525;28;20838;-62
2023/07/06 06:43:11;;;;;;;6.70;2.17;;;;;;;18.57;58.45;150715.34;4946868;28;20232;-62
2023/07/06 06:45:40;;;;;;;4.30;1.80;;;;;;;18.74;59.71;150756.66;4943477;28;20582;-62
2023/07/06 06:48:08;;;;;;;2.60;1.87;;;;;;;18.88;59.59;150789.22;4947393;28;20223;-62
2023/07/06 06:50:34;;;;;;;3.50;2.67;;;;;;;18.81;58.37;150772.94;4931159;28;20223;-61
2023/07/06 06:53:02;;;;;;;3.40;2.03;;;;;;;18.95;57.13;150806.75;4951913;28;20255;-62
2023/07/06 06:55:28;;;;;;;5.07;1.97;;;;;;;19.12;59.30;150846.81;4949689;28;20247;-62
2023/07/06 06:57:55;;;;;;;4.57;1.70;;;;;;;19.27;56.96;150884.38;4952039;28;20241;-62
2023/07/06 07:00:22;;;;;;;4.20;1.97;;;;;;;19.36;56.92;150905.69;4948018;28;20240;-62
2023/07/06 07:02:50;;;;;;;3.40;1.80;;;;;;;19.67;56.90;150979.56;4947337;28;20252;-62
2023/07/06 07:05:17;;;;;;;2.97;1.90;;;;;;;19.87;54.96;151029.66;4949017;28;21115;-62
2023/07/06 07:07:43;;;;;;;5.37;2.07;;;;;;;19.94;53.87;151044.75;4946009;28;20247;-62
2023/07/06 07:10:10;;;;;;;7.80;1.93;;;;;;;19.91;52.54;151038.47;4953534;28;20240;-62
2023/07/06 07:12:38;;;;;;;4.00;1.93;;;;;;;20.00;52.89;151059.78;4948805;28;20243;-62
2023/07/06 07:15:06;;;;;;;6.20;2.17;;;;;;;19.78;54.56;151007.13;4948670;28;20302;-61
2023/07/06 07:17:33;;;;;;;5.20;1.57;;;;;;;19.89;55.65;151033.44;4946713;28;20954;-62
2023/07/06 07:20:01;;;;;;;5.03;2.20;;;;;;;20.17;54.12;151102.31;4952364;28;20308;-62
2023/07/06 07:22:28;;;;;;;3.80;1.50;;;;;;;20.20;52.81;151109.84;4947032;28;20273;-62
2023/07/06 07:24:55;;;;;;;2.90;2.03;;;;;;;20.03;53.25;151067.28;4949230;28;20319;-61
2023/07/06 07:27:22;;;;;;;4.40;2.00;;;;;;;19.80;53.99;151010.84;4949054;28;21604;-62
2023/07/06 07:29:49;;;;;;;3.70;1.80;;;;;;;19.67;54.02;150979.56;4945490;28;20733;-62
2023/07/06 07:32:20;;;;;;;7.20;2.20;;;;;;;19.45;55.60;150928.25;4948825;28;20557;-61
2023/07/06 07:34:50;;;;;;;2.70;1.73;;;;;;;19.64;54.91;150972.06;4949551;28;20230;-61
2023/07/06 07:37:19;;;;;;;7.60;2.00;;;;;;;19.51;54.88;150940.75;4949672;28;20223;-61
2023/07/06 07:39:46;;;;;;;3.87;1.93;;;;;;;19.38;53.86;150910.72;4948745;28;20320;-62
2023/07/06 07:42:13;;;;;;;4.43;2.20;;;;;;;19.16;54.74;150856.84;4950885;28;20269;-61
2023/07/06 07:44:44;;;;;;;6.63;2.37;;;;;;;19.16;55.79;150858.13;4947869;28;20242;-61
2023/07/06 07:47:11;;;;;;;3.40;1.77;;;;;;;19.26;54.92;150880.66;4948435;28;20290;-61
2023/07/06 07:49:38;;;;;;;5.10;2.27;;;;;;;19.37;55.53;150906.94;4948604;28;20228;-62
2023/07/06 07:52:06;;;;;;;6.20;2.10;;;;;;;19.47;55.39;150933.25;4950417;28;20281;-61
2023/07/06 07:54:40;;;;;;;5.20;2.37;;;;;;;19.62;53.07;150969.53;4945406;28;20313;-61
2023/07/06 07:57:07;;;;;;;3.97;2.00;;;;;;;19.56;53.65;150953.28;4934233;28;20238;-61
2023/07/06 07:59:39;;;;;;;4.30;1.63;;;;;;;19.54;53.23;150949.50;4945185;28;20224;-62
2023/07/06 08:02:07;;;;;;;4.67;1.87;;;;;;;19.50;52.08;150938.25;4948200;28;20241;-62
2023/07/06 08:04:38;;;;;;;3.27;1.73;;;;;;;19.53;52.43;150945.78;4945600;28;20228;-62
2023/07/06 08:07:05;;;;;;;4.37;1.83;;;;;;;19.60;53.92;150963.31;4946937;28;20290;-62
2023/07/06 08:09:35;;;;;;;5.10;2.17;;;;;;;19.74;53.13;150997.09;4944599;28;20231;-62
2023/07/06 08:12:05;;;;;;;5.27;1.80;;;;;;;19.88;51.95;151032.16;4946737;28;20248;-62
2023/07/06 08:14:57;;;;;;;3.53;2.00;;;;;;;19.89;52.06;151034.72;4946432;28;20245;-62
2023/07/06 08:17:23;;;;;;;4.13;2.03;;;;;;;19.99;52.90;151057.28;4943072;28;20234;-62
2023/07/06 08:19:52;;;;;;;6.40;2.17;;;;;;;20.05;51.35;151072.31;4948992;28;20237;-62
2023/07/06 08:22:20;;;;;;;4.40;1.60;;;;;;;20.13;50.03;151091.06;4949788;28;20348;-62
2023/07/06 08:24:47;;;;;;;6.20;1.70;;;;;;;20.32;50.61;151137.41;4947786;28;20321;-62
2023/07/06 08:27:15;;;;;;;4.43;1.70;;;;;;;20.36;48.22;151147.44;4950145;28;20726;-62
2023/07/06 08:29:43;;;;;;;3.37;1.90;;;;;;;20.32;48.28;151137.41;4945113;28;20268;-62
2023/07/06 08:32:12;;;;;;;5.27;2.10;;;;;;;20.31;47.17;151134.91;4948081;28;20233;-62
2023/07/06 08:34:38;;;;;;;6.47;1.80;;;;;;;20.40;49.21;151156.22;4946737;28;20222;-62
2023/07/06 08:37:05;;;;;;;4.00;1.80;;;;;;;20.52;49.39;151185.03;4951505;28;20656;-62
2023/07/06 08:39:39;;;;;;;6.13;1.70;;;;;;;20.67;49.16;151222.63;4945224;28;20314;-62
2023/07/06 08:42:09;;;;;;;3.87;2.13;;;;;;;20.63;49.25;151213.88;4949392;28;20285;-62
2023/07/06 08:44:40;;;;;;;6.03;1.47;;;;;;;20.68;47.61;151223.84;4946992;28;20231;-62
2023/07/06 08:47:07;;;;;;;5.83;1.80;;;;;;;20.74;46.96;151240.16;4947973;28;20256;-62
2023/07/06 08:49:40;;;;;;;4.17;1.53;;;;;;;20.59;47.80;151203.84;4946711;28;20347;-62
2023/07/06 08:52:11;;;;;;;4.10;1.53;;;;;;;20.58;47.74;151200.06;4929539;28;20601;-62
2023/07/06 08:54:41;;;;;;;4.63;1.63;;;;;;;20.56;47.50;151195.06;4945267;28;20230;-62
2023/07/06 08:57:15;;;;;;;4.47;1.70;;;;;;;20.60;47.44;151206.34;4945489;28;20231;-62
2023/07/06 08:59:46;;;;;;;4.90;1.63;;;;;;;20.63;45.41;151212.59;4947360;28;20311;-62
2023/07/06 09:02:18;;;;;;;5.37;1.80;;;;;;;20.73;46.33;151236.38;4947285;28;20244;-62
2023/07/06 09:04:46;;;;;;;5.00;1.97;;;;;;;20.84;48.26;151262.78;4947841;28;20604;-61
2023/07/06 09:07:15;;;;;;;5.70;1.87;;;;;;;20.86;46.91;151267.78;4945866;28;20226;-61
2023/07/06 09:09:43;;;;;;;3.60;1.27;;;;;;;20.94;45.71;151289.06;4943986;28;20239;-63
2023/07/06 09:12:14;;;;;;;3.60;1.37;;;;;;;21.07;45.56;151320.44;4945663;28;20705;-63
2023/07/06 09:14:42;;;;;;;4.50;1.67;;;;;;;21.02;47.01;151307.91;4943449;28;20245;-63
2023/07/06 09:17:16;;;;;;;2.17;1.30;;;;;;;21.13;46.86;151334.19;4946415;28;20233;-63
2023/07/06 09:19:44;;;;;;;6.17;1.90;;;;;;;21.23;47.17;151359.28;4925881;28;21406;-63
2023/07/06 09:22:11;;;;;;;9.90;1.73;;;;;;;21.32;47.87;151380.56;4937086;28;20325;-63
2023/07/06 09:24:38;;;;;;;3.50;1.70;;;;;;;21.49;45.70;151420.66;4884192;28;20218;-63
2023/07/06 09:27:10;;;;;;;2.67;1.57;;;;;;;21.42;45.83;151404.41;4934215;28;20242;-63
2023/07/06 09:29:38;;;;;;;3.87;1.40;;;;;;;21.49;46.79;151421.94;4937390;28;20309;-62
2023/07/06 09:32:14;;;;;;;4.63;1.73;;;;;;;21.54;42.52;151433.22;4946265;28;20228;-63
2023/07/06 09:34:52;;;;;;;2.60;1.60;;;;;;;21.56;43.25;151438.22;5054524;27;20588;-63
2023/07/06 09:37:20;;;;;;;2.87;2.20;;;;;;;21.57;45.22;151440.72;5055577;28;21038;-63
2023/07/06 09:39:59;;;;;;;2.97;1.53;;;;;;;21.60;44.47;151448.25;5073313;28;20231;-62
2023/07/06 09:42:28;;;;;;;6.07;1.70;;;;;;;21.64;43.87;151458.34;5055797;27;20609;-62
2023/07/06 09:44:55;;;;;;;4.80;1.77;;;;;;;21.84;43.69;151506.00;5065454;28;20287;-62
2023/07/06 09:47:23;;;;;;;3.07;1.40;;;;;;;21.88;42.71;151516.00;5061527;28;20794;-62
2023/07/06 09:49:56;;;;;;;5.10;2.00;;;;;;;22.03;43.31;151551.13;5073747;28;20238;-62
2023/07/06 09:52:24;;;;;;;2.93;1.50;;;;;;;21.82;41.79;151502.19;5069622;27;20244;-62
2023/07/06 09:54:57;;;;;;;7.90;1.73;;;;;;;21.95;42.85;151532.28;5059264;28;20780;-63
2023/07/06 09:57:26;;;;;;;3.50;1.90;;;;;;;22.11;42.49;151572.44;5068280;28;20233;-63
2023/07/06 09:59:58;;;;;;;5.40;1.87;;;;;;;22.30;43.16;151617.59;5060164;28;20606;-63
2023/07/06 10:02:37;;;;;;;3.67;1.70;;;;;;;22.26;38.77;151608.78;5068327;28;20237;-62
2023/07/06 10:05:21;;;;;;;4.43;2.23;;;;;;;22.34;39.61;151627.63;5068881;28;20239;-62
2023/07/06 10:07:54;;;;;;;6.53;2.30;;;;;;;22.44;37.35;151650.19;5071383;28;20605;-62
2023/07/06 10:10:30;;;;;;;5.50;1.93;;;;;;;22.44;37.86;151650.19;5065407;28;20277;-62
2023/07/06 10:13:04;;;;;;;6.00;2.23;;;;;;;22.00;37.77;151543.59;5049194;28;20223;-62
2023/07/06 10:15:39;;;;;;;4.10;2.00;;;;;;;22.11;38.72;151572.44;5050808;28;20227;-62
2023/07/06 10:18:14;;;;;;;5.30;1.73;;;;;;;22.32;39.02;151621.31;5054362;28;20236;-62
2023/07/06 10:20:48;;;;;;;3.20;2.03;;;;;;;22.53;38.40;151672.81;5059540;27;20239;-62
2023/07/06 10:23:32;;;;;;;5.07;2.10;;;;;;;22.58;38.39;151684.09;5063464;28;20314;-63
2023/07/06 10:26:08;;;;;;;5.30;2.37;;;;;;;22.84;38.49;151748.06;5060241;27;20315;-62
2023/07/06 10:28:38;;;;;;;5.93;2.10;;;;;;;22.90;37.32;151763.09;5046763;28;20306;-62
2023/07/06 10:31:08;;;;;;;4.70;2.00;;;;;;;23.05;39.22;151799.53;5049203;28;20286;-62
2023/07/06 10:33:47;;;;;;;5.07;2.47;;;;;;;23.14;34.47;151820.81;5051500;28;20229;-62
2023/07/06 10:36:16;;;;;;;3.73;2.20;;;;;;;23.07;34.59;151803.25;5066038;28;20234;-62
2023/07/06 10:38:44;;;;;;;3.03;2.03;;;;;;;22.92;34.25;151766.91;5068611;28;20233;-62
2023/07/06 10:41:29;;;;;;;3.00;2.30;;;;;;;23.09;35.31;151809.56;5053094;27;20276;-62
2023/07/06 10:43:59;;;;;;;4.90;2.13;;;;;;;23.11;35.99;151813.31;5059640;28;20231;-63
2023/07/06 10:46:35;;;;;;;3.60;2.43;;;;;;;23.21;37.24;151838.41;5056607;28;20228;-63
2023/07/06 10:49:23;;;;;;;4.47;2.13;;;;;;;23.29;35.25;151858.53;5054870;28;20250;-63
2023/07/06 10:51:52;;;;;;;4.80;2.47;;;;;;;23.32;34.29;151864.78;5032373;28;20322;-63
2023/07/06 10:54:23;;;;;;;5.93;1.97;;;;;;;23.05;35.10;151799.53;5029503;28;20227;-63
2023/07/06 10:57:00;;;;;;;5.57;2.87;;;;;;;22.88;35.89;151756.84;5037418;28;20748;-63
2023/07/06 10:59:35;;;;;;;7.80;2.43;;;;;;;23.19;35.69;151833.38;5050152;28;20263;-62
2023/07/06 11:02:14;;;;;;;4.13;1.97;;;;;;;23.45;36.67;151896.19;5040067;28;20237;-62
2023/07/06 11:04:54;;;;;;;3.20;1.93;;;;;;;23.35;36.28;151872.31;5038576;28;20230;-62
2023/07/06 11:07:45;;;;;;;3.00;2.00;;;;;;;23.79;35.51;151977.75;5036685;28;20248;-63
2023/07/06 11:10:23;;;;;;;3.97;2.27;;;;;;;23.76;35.60;151970.22;5034501;28;20222;-62
2023/07/06 11:12:55;;;;;;;5.73;2.70;;;;;;;23.82;35.46;151985.28;5049727;28;20255;-63
2023/07/06 11:15:30;;;;;;;4.67;2.40;;;;;;;23.85;35.84;151992.81;5060140;28;20248;-63
2023/07/06 11:17:58;;;;;;;5.70;1.90;;;;;;;23.58;36.53;151928.81;5049700;28;20750;-63
2023/07/06 11:20:28;;;;;;;3.97;1.90;;;;;;;23.03;35.56;151794.50;5035818;28;20229;-62
2023/07/06 11:23:00;;;;;;;5.10;2.50;;;;;;;23.48;35.39;151902.44;5044367;28;20245;-62
2023/07/06 11:25:29;;;;;;;5.73;2.60;;;;;;;23.43;36.30;151891.16;5047705;28;20274;-63
2023/07/06 11:28:02;;;;;;;4.43;2.10;;;;;;;23.70;36.25;151956.44;5053641;28;20238;-63
2023/07/06 11:30:36;;;;;;;6.77;2.23;;;;;;;23.78;35.00;151975.22;5044826;28;20236;-63
2023/07/06 11:33:15;;;;;;;4.27;2.00;;;;;;;23.74;35.28;151967.69;5035695;28;20292;-63
2023/07/06 11:35:55;;;;;;;3.37;2.13;;;;;;;23.59;35.01;151930.03;5036939;28;20236;-63
2023/07/06 11:38:37;;;;;;;6.87;2.13;;;;;;;23.83;35.94;151989.06;5035941;28;20229;-63
2023/07/06 11:41:24;;;;;;;5.30;2.20;;;;;;;23.73;33.83;151965.19;5055991;28;20237;-63